sensor_id;sensor_type;location;lat;lon;timestamp;pressure;altitude;pressure_sealevel;temperature;humidity
63493;BME280;49638;47.526;10.028;2023-05-25T00:00:36;91777.31;;;8.20;96.71
63493;BME280;49638;47.526;10.028;2023-05-25T00:03:36;91782.78;;;8.18;96.88
63493;BME280;49638;47.526;10.028;2023-05-25T00:06:39;91768.59;;;8.19;96.46
63493;BME280;49638;47.526;10.028;2023-05-25T00:09:41;91775.22;;;8.22;96.54
63493;BME280;49638;47.526;10.028;2023-05-25T00:12:43;91757.16;;;8.14;96.67
63493;BME280;49638;47.526;10.028;2023-05-25T00:15:43;91767.91;;;8.24;96.46
63493;BME280;49638;47.526;10.028;2023-05-25T00:18:43;91763.69;;;8.23;96.61
63493;BME280;49638;47.526;10.028;2023-05-25T00:21:44;91766.31;;;8.23;96.45
63493;BME280;49638;47.526;10.028;2023-05-25T00:24:47;91747.41;;;8.14;96.39
63493;BME280;49638;47.526;10.028;2023-05-25T00:27:47;91756.00;;;8.21;96.84
63493;BME280;49638;47.526;10.028;2023-05-25T00:30:48;91751.78;;;8.20;96.95
63493;BME280;49638;47.526;10.028;2023-05-25T00:33:48;91755.78;;;8.23;96.84
63493;BME280;49638;47.526;10.028;2023-05-25T00:36:49;91742.94;;;8.15;96.69
63493;BME280;49638;47.526;10.028;2023-05-25T00:39:49;91734.34;;;8.07;96.80
63493;BME280;49638;47.526;10.028;2023-05-25T00:42:50;91738.97;;;8.12;96.96
63493;BME280;49638;47.526;10.028;2023-05-25T00:45:52;91731.50;;;8.09;97.26
63493;BME280;49638;47.526;10.028;2023-05-25T00:48:54;91746.25;;;8.22;97.42
63493;BME280;49638;47.526;10.028;2023-05-25T00:51:56;91741.94;;;8.16;97.52
63493;BME280;49638;47.526;10.028;2023-05-25T00:54:58;91742.28;;;8.19;98.46
63493;BME280;49638;47.526;10.028;2023-05-25T00:58:03;91749.72;;;8.22;97.97
63493;BME280;49638;47.526;10.028;2023-05-25T01:01:03;91757.38;;;8.24;100.00
63493;BME280;49638;47.526;10.028;2023-05-25T01:04:07;91735.88;;;8.15;97.86
63493;BME280;49638;47.526;10.028;2023-05-25T01:07:09;91744.56;;;8.16;98.07
63493;BME280;49638;47.526;10.028;2023-05-25T01:10:13;91747.88;;;8.23;97.79
63493;BME280;49638;47.526;10.028;2023-05-25T01:13:16;91736.09;;;8.14;97.74
63493;BME280;49638;47.526;10.028;2023-05-25T01:16:17;91738.13;;;8.12;97.69
63493;BME280;49638;47.526;10.028;2023-05-25T01:19:17;91730.81;;;8.14;97.97
63493;BME280;49638;47.526;10.028;2023-05-25T01:22:30;91748.00;;;8.16;98.31
63493;BME280;49638;47.526;10.028;2023-05-25T01:25:47;91743.53;;;8.17;98.99
63493;BME280;49638;47.526;10.028;2023-05-25T01:28:51;91745.47;;;8.10;98.27
63493;BME280;49638;47.526;10.028;2023-05-25T01:31:54;91733.91;;;7.99;98.77
63493;BME280;49638;47.526;10.028;2023-05-25T01:34:56;91744.44;;;7.99;100.00
63493;BME280;49638;47.526;10.028;2023-05-25T01:37:58;91738.69;;;7.90;98.69
63493;BME280;49638;47.526;10.028;2023-05-25T01:40:59;91735.84;;;7.92;98.64
63493;BME280;49638;47.526;10.028;2023-05-25T01:43:59;91731.94;;;7.94;99.03
63493;BME280;49638;47.526;10.028;2023-05-25T01:47:13;91740.28;;;7.91;99.50
63493;BME280;49638;47.526;10.028;2023-05-25T01:53:35;91734.22;;;7.79;99.84
63493;BME280;49638;47.526;10.028;2023-05-25T01:56:36;91745.66;;;7.85;99.80
63493;BME280;49638;47.526;10.028;2023-05-25T01:59:37;91732.59;;;7.78;100.00
63493;BME280;49638;47.526;10.028;2023-05-25T02:02:40;91742.44;;;7.82;100.00
63493;BME280;49638;47.526;10.028;2023-05-25T02:05:42;91731.44;;;7.74;100.00
63493;BME280;49638;47.526;10.028;2023-05-25T02:08:43;91726.53;;;7.77;100.00
63493;BME280;49638;47.526;10.028;2023-05-25T02:11:44;91741.19;;;7.85;100.00
63493;BME280;49638;47.526;10.028;2023-05-25T02:14:45;91739.13;;;7.87;99.98
63493;BME280;49638;47.526;10.028;2023-05-25T02:17:47;91729.63;;;7.86;99.67
63493;BME280;49638;47.526;10.028;2023-05-25T02:20:47;91728.50;;;7.82;99.90
63493;BME280;49638;47.526;10.028;2023-05-25T02:23:48;91726.88;;;7.81;99.65
63493;BME280;49638;47.526;10.028;2023-05-25T02:26:48;91724.38;;;7.86;99.49
63493;BME280;49638;47.526;10.028;2023-05-25T02:29:48;91716.59;;;7.79;99.88
63493;BME280;49638;47.526;10.028;2023-05-25T02:32:49;91722.88;;;7.78;99.80
63493;BME280;49638;47.526;10.028;2023-05-25T02:35:49;91726.06;;;7.80;99.88
63493;BME280;49638;47.526;10.028;2023-05-25T02:38:50;91727.09;;;7.79;99.94
63493;BME280;49638;47.526;10.028;2023-05-25T02:41:51;91728.25;;;7.83;99.86
63493;BME280;49638;47.526;10.028;2023-05-25T02:44:51;91724.94;;;7.76;99.80
63493;BME280;49638;47.526;10.028;2023-05-25T02:47:51;91736.16;;;7.83;100.00
63493;BME280;49638;47.526;10.028;2023-05-25T02:50:51;91722.44;;;7.81;100.00
63493;BME280;49638;47.526;10.028;2023-05-25T02:53:52;91724.72;;;7.78;99.99
63493;BME280;49638;47.526;10.028;2023-05-25T02:56:53;91719.06;;;7.74;100.00
63493;BME280;49638;47.526;10.028;2023-05-25T02:59:53;91712.00;;;7.75;100.00
63493;BME280;49638;47.526;10.028;2023-05-25T03:02:54;91717.47;;;7.73;100.00
63493;BME280;49638;47.526;10.028;2023-05-25T03:05:54;91705.56;;;7.71;100.00
63493;BME280;49638;47.526;10.028;2023-05-25T03:08:56;91710.63;;;7.72;100.00
63493;BME280;49638;47.526;10.028;2023-05-25T03:11:56;91718.97;;;7.81;100.00
63493;BME280;49638;47.526;10.028;2023-05-25T03:14:56;91714.66;;;7.75;100.00
63493;BME280;49638;47.526;10.028;2023-05-25T03:17:56;91712.81;;;7.75;100.00
63493;BME280;49638;47.526;10.028;2023-05-25T03:21:00;91712.00;;;7.75;100.00
63493;BME280;49638;47.526;10.028;2023-05-25T03:24:00;91712.81;;;7.75;100.00
63493;BME280;49638;47.526;10.028;2023-05-25T03:27:00;91709.25;;;7.70;100.00
63493;BME280;49638;47.526;10.028;2023-05-25T03:30:01;91704.34;;;7.73;100.00
63493;BME280;49638;47.526;10.028;2023-05-25T03:33:01;91711.19;;;7.74;100.00
63493;BME280;49638;47.526;10.028;2023-05-25T03:36:05;91722.09;;;7.78;100.00
63493;BME280;49638;47.526;10.028;2023-05-25T03:39:06;91729.97;;;7.78;100.00
63493;BME280;49638;47.526;10.028;2023-05-25T03:42:09;91708.34;;;7.76;100.00
63493;BME280;49638;47.526;10.028;2023-05-25T03:45:09;91705.38;;;7.72;100.00
63493;BME280;49638;47.526;10.028;2023-05-25T03:48:10;91733.88;;;7.87;100.00
63493;BME280;49638;47.526;10.028;2023-05-25T03:51:10;91721.25;;;7.77;100.00
63493;BME280;49638;47.526;10.028;2023-05-25T03:54:10;91715.44;;;7.75;100.00
63493;BME280;49638;47.526;10.028;2023-05-25T03:57:10;91727.34;;;7.78;100.00
63493;BME280;49638;47.526;10.028;2023-05-25T04:00:11;91730.97;;;7.77;100.00
63493;BME280;49638;47.526;10.028;2023-05-25T04:03:11;91725.63;;;7.72;100.00
63493;BME280;49638;47.526;10.028;2023-05-25T04:06:12;91744.13;;;7.77;100.00
63493;BME280;49638;47.526;10.028;2023-05-25T04:09:12;91734.41;;;7.77;100.00
63493;BME280;49638;47.526;10.028;2023-05-25T04:12:12;91731.53;;;7.67;100.00
63493;BME280;49638;47.526;10.028;2023-05-25T04:15:12;91757.53;;;7.87;100.00
63493;BME280;49638;47.526;10.028;2023-05-25T04:18:13;91748.16;;;7.91;100.00
63493;BME280;49638;47.526;10.028;2023-05-25T04:21:13;91741.22;;;7.97;100.00
63493;BME280;49638;47.526;10.028;2023-05-25T04:24:14;91761.25;;;8.10;100.00
63493;BME280;49638;47.526;10.028;2023-05-25T04:27:14;91748.91;;;8.10;100.00
63493;BME280;49638;47.526;10.028;2023-05-25T04:30:15;91745.38;;;8.16;100.00
63493;BME280;49638;47.526;10.028;2023-05-25T04:33:16;91758.31;;;8.29;100.00
63493;BME280;49638;47.526;10.028;2023-05-25T04:36:16;91749.63;;;8.29;100.00
63493;BME280;49638;47.526;10.028;2023-05-25T04:39:17;91757.16;;;8.37;100.00
63493;BME280;49638;47.526;10.028;2023-05-25T04:42:17;91746.41;;;8.39;100.00
63493;BME280;49638;47.526;10.028;2023-05-25T04:45:18;91744.94;;;8.78;99.51
63493;BME280;49638;47.526;10.028;2023-05-25T04:48:20;91749.13;;;9.03;98.87
63493;BME280;49638;47.526;10.028;2023-05-25T04:51:20;91755.97;;;9.15;97.98
63493;BME280;49638;47.526;10.028;2023-05-25T04:54:21;91742.50;;;9.69;96.28
63493;BME280;49638;47.526;10.028;2023-05-25T04:57:22;91746.03;;;9.91;96.35
63493;BME280;49638;47.526;10.028;2023-05-25T05:00:22;91762.09;;;10.35;95.35
63493;BME280;49638;47.526;10.028;2023-05-25T05:03:22;91754.91;;;10.64;96.04
63493;BME280;49638;47.526;10.028;2023-05-25T05:06:23;91752.56;;;10.68;95.68
63493;BME280;49638;47.526;10.028;2023-05-25T05:09:24;91754.00;;;10.59;95.79
63493;BME280;49638;47.526;10.028;2023-05-25T05:12:25;91777.22;;;10.91;94.24
63493;BME280;49638;47.526;10.028;2023-05-25T05:15:25;91764.44;;;11.26;94.12
63493;BME280;49638;47.526;10.028;2023-05-25T05:18:25;91761.28;;;11.73;92.68
63493;BME280;49638;47.526;10.028;2023-05-25T05:21:28;91767.41;;;12.28;91.66
63493;BME280;49638;47.526;10.028;2023-05-25T05:24:28;91763.31;;;12.79;91.09
63493;BME280;49638;47.526;10.028;2023-05-25T05:27:28;91765.13;;;13.16;90.57
63493;BME280;49638;47.526;10.028;2023-05-25T05:30:29;91771.72;;;13.56;89.28
63493;BME280;49638;47.526;10.028;2023-05-25T05:33:29;91759.56;;;13.70;88.21
63493;BME280;49638;47.526;10.028;2023-05-25T05:36:30;91774.50;;;13.92;88.68
63493;BME280;49638;47.526;10.028;2023-05-25T05:39:32;91770.56;;;14.00;87.39
63493;BME280;49638;47.526;10.028;2023-05-25T05:42:32;91773.50;;;14.18;86.75
63493;BME280;49638;47.526;10.028;2023-05-25T05:45:32;91773.69;;;13.91;87.80
63493;BME280;49638;47.526;10.028;2023-05-25T05:48:33;91774.91;;;13.58;88.41
63493;BME280;49638;47.526;10.028;2023-05-25T05:51:33;91790.75;;;13.38;89.06
63493;BME280;49638;47.526;10.028;2023-05-25T05:54:33;91794.31;;;13.11;89.22
63493;BME280;49638;47.526;10.028;2023-05-25T05:57:33;91791.53;;;12.91;89.87
63493;BME280;49638;47.526;10.028;2023-05-25T06:00:34;91779.91;;;12.65;89.30
63493;BME280;49638;47.526;10.028;2023-05-25T06:03:34;91772.09;;;12.48;89.45
63493;BME280;49638;47.526;10.028;2023-05-25T06:06:35;91778.91;;;12.39;89.63
63493;BME280;49638;47.526;10.028;2023-05-25T06:09:36;91783.13;;;12.35;90.07
63493;BME280;49638;47.526;10.028;2023-05-25T06:12:36;91786.56;;;12.35;90.85
63493;BME280;49638;47.526;10.028;2023-05-25T06:15:37;91784.63;;;12.25;91.09
63493;BME280;49638;47.526;10.028;2023-05-25T06:18:37;91804.41;;;12.18;91.00
63493;BME280;49638;47.526;10.028;2023-05-25T06:21:37;91799.69;;;12.20;91.22
63493;BME280;49638;47.526;10.028;2023-05-25T06:24:38;91811.06;;;12.20;91.04
63493;BME280;49638;47.526;10.028;2023-05-25T06:27:38;91809.69;;;12.13;91.24
63493;BME280;49638;47.526;10.028;2023-05-25T06:30:38;91815.38;;;11.99;91.33
63493;BME280;49638;47.526;10.028;2023-05-25T06:33:38;91814.97;;;11.86;91.41
63493;BME280;49638;47.526;10.028;2023-05-25T06:36:39;91819.34;;;11.80;91.19
63493;BME280;49638;47.526;10.028;2023-05-25T06:39:39;91835.56;;;11.83;91.73
63493;BME280;49638;47.526;10.028;2023-05-25T06:42:42;91830.31;;;11.89;91.30
63493;BME280;49638;47.526;10.028;2023-05-25T06:45:42;91843.88;;;12.14;91.29
63493;BME280;49638;47.526;10.028;2023-05-25T06:48:43;91838.06;;;12.17;91.53
63493;BME280;49638;47.526;10.028;2023-05-25T06:51:43;91828.53;;;12.16;91.02
63493;BME280;49638;47.526;10.028;2023-05-25T06:54:44;91820.81;;;12.15;91.17
63493;BME280;49638;47.526;10.028;2023-05-25T06:57:44;91820.63;;;12.21;90.73
63493;BME280;49638;47.526;10.028;2023-05-25T07:00:45;91811.81;;;12.16;90.59
63493;BME280;49638;47.526;10.028;2023-05-25T07:03:45;91823.63;;;12.30;90.49
63493;BME280;49638;47.526;10.028;2023-05-25T07:06:45;91835.94;;;12.46;90.96
63493;BME280;49638;47.526;10.028;2023-05-25T07:09:47;91829.91;;;12.51;90.90
63493;BME280;49638;47.526;10.028;2023-05-25T07:12:47;91832.81;;;12.49;90.79
63493;BME280;49638;47.526;10.028;2023-05-25T07:15:47;91838.47;;;12.58;91.00
63493;BME280;49638;47.526;10.028;2023-05-25T07:18:48;91834.84;;;12.69;90.44
63493;BME280;49638;47.526;10.028;2023-05-25T07:21:48;91825.88;;;12.75;89.96
63493;BME280;49638;47.526;10.028;2023-05-25T07:24:48;91832.84;;;12.87;90.20
63493;BME280;49638;47.526;10.028;2023-05-25T07:27:49;91839.06;;;13.02;89.93
63493;BME280;49638;47.526;10.028;2023-05-25T07:30:49;91834.09;;;13.11;89.31
63493;BME280;49638;47.526;10.028;2023-05-25T07:33:50;91843.25;;;13.31;88.96
63493;BME280;49638;47.526;10.028;2023-05-25T07:36:50;91840.66;;;13.41;88.88
63493;BME280;49638;47.526;10.028;2023-05-25T07:39:50;91849.75;;;13.50;87.16
63493;BME280;49638;47.526;10.028;2023-05-25T07:42:51;91847.75;;;13.72;87.30
63493;BME280;49638;47.526;10.028;2023-05-25T07:45:51;91847.03;;;13.87;86.87
63493;BME280;49638;47.526;10.028;2023-05-25T07:48:51;91844.16;;;14.09;86.46
63493;BME280;49638;47.526;10.028;2023-05-25T07:51:53;91853.03;;;14.30;85.76
63493;BME280;49638;47.526;10.028;2023-05-25T07:54:53;91840.22;;;14.22;85.25
63493;BME280;49638;47.526;10.028;2023-05-25T07:57:53;91846.38;;;14.38;84.41
63493;BME280;49638;47.526;10.028;2023-05-25T08:00:54;91847.25;;;14.54;84.68
63493;BME280;49638;47.526;10.028;2023-05-25T08:03:54;91855.53;;;14.68;85.10
63493;BME280;49638;47.526;10.028;2023-05-25T08:06:55;91851.19;;;14.46;83.66
63493;BME280;49638;47.526;10.028;2023-05-25T08:09:56;91858.88;;;14.32;83.60
63493;BME280;49638;47.526;10.028;2023-05-25T08:12:57;91845.81;;;14.20;83.61
63493;BME280;49638;47.526;10.028;2023-05-25T08:15:58;91854.09;;;14.34;84.14
63493;BME280;49638;47.526;10.028;2023-05-25T08:18:58;91877.03;;;14.51;83.85
63493;BME280;49638;47.526;10.028;2023-05-25T08:22:00;91872.78;;;14.55;84.08
63493;BME280;49638;47.526;10.028;2023-05-25T08:25:02;91861.38;;;14.64;83.14
63493;BME280;49638;47.526;10.028;2023-05-25T08:28:03;91884.50;;;14.69;82.83
63493;BME280;49638;47.526;10.028;2023-05-25T08:31:03;91884.25;;;14.76;83.03
63493;BME280;49638;47.526;10.028;2023-05-25T08:34:03;91889.59;;;14.86;83.79
63493;BME280;49638;47.526;10.028;2023-05-25T08:37:03;91883.47;;;14.85;82.87
63493;BME280;49638;47.526;10.028;2023-05-25T08:40:06;91889.03;;;14.74;82.14
63493;BME280;49638;47.526;10.028;2023-05-25T08:43:07;91895.16;;;14.74;83.10
63493;BME280;49638;47.526;10.028;2023-05-25T08:46:08;91902.84;;;14.71;82.42
63493;BME280;49638;47.526;10.028;2023-05-25T08:49:10;91903.41;;;14.68;82.53
63493;BME280;49638;47.526;10.028;2023-05-25T08:52:13;91911.38;;;14.68;82.35
63493;BME280;49638;47.526;10.028;2023-05-25T08:55:16;91910.84;;;14.76;81.93
63493;BME280;49638;47.526;10.028;2023-05-25T08:58:20;91910.31;;;14.74;81.53
63493;BME280;49638;47.526;10.028;2023-05-25T09:01:25;91924.97;;;14.86;82.20
63493;BME280;49638;47.526;10.028;2023-05-25T09:04:27;91914.06;;;14.93;82.35
63493;BME280;49638;47.526;10.028;2023-05-25T09:07:28;91914.88;;;14.99;81.99
63493;BME280;49638;47.526;10.028;2023-05-25T09:10:29;91910.88;;;14.86;82.19
63493;BME280;49638;47.526;10.028;2023-05-25T09:13:32;91928.69;;;14.75;82.19
63493;BME280;49638;47.526;10.028;2023-05-25T09:16:32;91937.44;;;14.71;82.24
63493;BME280;49638;47.526;10.028;2023-05-25T09:19:34;91935.88;;;14.75;82.40
63493;BME280;49638;47.526;10.028;2023-05-25T09:22:35;91936.66;;;14.75;82.51
63493;BME280;49638;47.526;10.028;2023-05-25T09:25:36;91942.53;;;14.87;82.93
63493;BME280;49638;47.526;10.028;2023-05-25T09:28:44;91931.91;;;14.93;81.67
63493;BME280;49638;47.526;10.028;2023-05-25T09:31:45;91939.38;;;14.96;82.74
63493;BME280;49638;47.526;10.028;2023-05-25T09:34:46;91940.97;;;15.02;82.85
63493;BME280;49638;47.526;10.028;2023-05-25T09:37:46;91936.19;;;15.09;82.43
63493;BME280;49638;47.526;10.028;2023-05-25T09:40:48;91940.19;;;15.17;82.62
63493;BME280;49638;47.526;10.028;2023-05-25T09:43:48;91941.28;;;15.26;82.43
63493;BME280;49638;47.526;10.028;2023-05-25T09:46:48;91942.34;;;15.30;82.53
63493;BME280;49638;47.526;10.028;2023-05-25T09:49:49;91943.13;;;15.30;82.29
63493;BME280;49638;47.526;10.028;2023-05-25T09:52:55;91947.13;;;15.38;82.13
63493;BME280;49638;47.526;10.028;2023-05-25T09:55:56;91948.97;;;15.48;81.72
63493;BME280;49638;47.526;10.028;2023-05-25T09:58:56;91960.16;;;15.55;81.90
63493;BME280;49638;47.526;10.028;2023-05-25T10:01:57;91960.16;;;15.65;81.72
63493;BME280;49638;47.526;10.028;2023-05-25T10:04:58;91957.00;;;15.73;81.59
63493;BME280;49638;47.526;10.028;2023-05-25T10:08:00;91951.38;;;15.65;81.53
63493;BME280;49638;47.526;10.028;2023-05-25T10:11:01;91963.66;;;15.71;81.63
63493;BME280;49638;47.526;10.028;2023-05-25T10:14:05;91960.72;;;15.72;81.39
63493;BME280;49638;47.526;10.028;2023-05-25T10:17:08;91974.06;;;15.77;81.04
63493;BME280;49638;47.526;10.028;2023-05-25T10:20:11;91963.63;;;15.76;81.55
63493;BME280;49638;47.526;10.028;2023-05-25T10:23:15;91972.19;;;15.83;81.25
63493;BME280;49638;47.526;10.028;2023-05-25T10:26:21;91958.84;;;15.78;81.42
63493;BME280;49638;47.526;10.028;2023-05-25T10:29:23;91968.72;;;15.77;81.61
63493;BME280;49638;47.526;10.028;2023-05-25T10:32:24;91976.97;;;15.86;81.36
63493;BME280;49638;47.526;10.028;2023-05-25T10:35:26;91976.16;;;15.85;81.69
63493;BME280;49638;47.526;10.028;2023-05-25T10:38:26;91982.84;;;15.83;81.52
63493;BME280;49638;47.526;10.028;2023-05-25T10:41:30;91986.31;;;15.78;76.50
63493;BME280;49638;47.526;10.028;2023-05-25T10:44:30;91982.31;;;15.71;81.56
63493;BME280;49638;47.526;10.028;2023-05-25T10:47:31;91981.25;;;15.67;81.53
63493;BME280;49638;47.526;10.028;2023-05-25T10:50:34;91987.09;;;15.69;80.81
63493;BME280;49638;47.526;10.028;2023-05-25T10:53:34;91986.03;;;15.80;81.34
63493;BME280;49638;47.526;10.028;2023-05-25T10:56:34;91969.78;;;15.71;81.39
63493;BME280;49638;47.526;10.028;2023-05-25T10:59:39;91970.03;;;15.85;81.58
63493;BME280;49638;47.526;10.028;2023-05-25T11:02:59;91983.09;;;15.97;80.29
63493;BME280;49638;47.526;10.028;2023-05-25T11:06:00;91970.28;;;15.99;81.14
63493;BME280;49638;47.526;10.028;2023-05-25T11:09:02;91958.56;;;15.95;81.00
63493;BME280;49638;47.526;10.028;2023-05-25T11:12:03;91972.41;;;16.02;81.01
63493;BME280;49638;47.526;10.028;2023-05-25T11:15:08;91985.75;;;16.07;79.31
63493;BME280;49638;47.526;10.028;2023-05-25T11:18:13;91973.22;;;16.07;80.32
63493;BME280;49638;47.526;10.028;2023-05-25T11:21:15;91968.41;;;16.15;80.55
63493;BME280;49638;47.526;10.028;2023-05-25T11:24:17;91965.72;;;16.15;80.45
63493;BME280;49638;47.526;10.028;2023-05-25T11:27:22;91979.81;;;16.25;80.15
63493;BME280;49638;47.526;10.028;2023-05-25T11:30:26;91977.97;;;16.31;79.63
63493;BME280;49638;47.526;10.028;2023-05-25T11:33:27;91978.75;;;16.31;80.73
63493;BME280;49638;47.526;10.028;2023-05-25T11:36:27;91976.88;;;16.37;80.75
63493;BME280;49638;47.526;10.028;2023-05-25T11:39:32;91983.81;;;16.38;80.37
63493;BME280;49638;47.526;10.028;2023-05-25T11:42:32;91978.97;;;16.40;80.23
63493;BME280;49638;47.526;10.028;2023-05-25T11:45:33;91987.50;;;16.47;80.45
63493;BME280;49638;47.526;10.028;2023-05-25T11:48:33;91976.03;;;16.47;79.94
63493;BME280;49638;47.526;10.028;2023-05-25T11:51:34;91982.16;;;16.58;80.53
63493;BME280;49638;47.526;10.028;2023-05-25T11:54:36;91978.66;;;16.57;80.05
63493;BME280;49638;47.526;10.028;2023-05-25T11:57:39;91978.91;;;16.61;80.01
63493;BME280;49638;47.526;10.028;2023-05-25T12:00:39;91985.31;;;16.60;80.09
63493;BME280;49638;47.526;10.028;2023-05-25T12:03:40;91976.78;;;16.63;79.86
63493;BME280;49638;47.526;10.028;2023-05-25T12:06:40;91983.69;;;16.69;79.32
63493;BME280;49638;47.526;10.028;2023-05-25T12:09:41;91982.59;;;16.70;79.57
63493;BME280;49638;47.526;10.028;2023-05-25T12:12:44;91983.44;;;16.75;78.88
63493;BME280;49638;47.526;10.028;2023-05-25T12:15:45;91987.13;;;16.79;77.45
63493;BME280;49638;47.526;10.028;2023-05-25T12:18:46;91978.56;;;16.88;79.57
63493;BME280;49638;47.526;10.028;2023-05-25T12:21:47;91972.16;;;16.89;79.78
63493;BME280;49638;47.526;10.028;2023-05-25T12:24:50;91974.25;;;16.97;79.50
63493;BME280;49638;47.526;10.028;2023-05-25T12:28:09;91969.75;;;16.92;76.37
63493;BME280;49638;47.526;10.028;2023-05-25T12:31:24;91964.41;;;16.92;75.99
63493;BME280;49638;47.526;10.028;2023-05-25T12:34:26;91962.75;;;16.96;79.29
63493;BME280;49638;47.526;10.028;2023-05-25T12:37:26;91963.25;;;17.03;78.97
63493;BME280;49638;47.526;10.028;2023-05-25T12:40:26;91966.16;;;17.07;79.10
63493;BME280;49638;47.526;10.028;2023-05-25T12:43:36;91979.53;;;17.07;76.55
63493;BME280;49638;47.526;10.028;2023-05-25T12:46:36;91976.84;;;17.12;78.72
63493;BME280;49638;47.526;10.028;2023-05-25T12:49:37;91967.22;;;17.11;78.60
63493;BME280;49638;47.526;10.028;2023-05-25T12:52:40;91971.75;;;17.16;78.05
63493;BME280;49638;47.526;10.028;2023-05-25T12:55:41;91973.31;;;17.17;78.24
63493;BME280;49638;47.526;10.028;2023-05-25T12:58:41;91977.31;;;17.19;78.33
63493;BME280;49638;47.526;10.028;2023-05-25T13:01:41;91973.56;;;17.20;78.17
63493;BME280;49638;47.526;10.028;2023-05-25T13:04:42;91969.25;;;17.24;78.05
63493;BME280;49638;47.526;10.028;2023-05-25T13:07:43;91968.72;;;17.27;77.77
63493;BME280;49638;47.526;10.028;2023-05-25T13:10:43;91979.56;;;17.41;77.78
63493;BME280;49638;47.526;10.028;2023-05-25T13:13:47;91974.75;;;17.43;77.36
63493;BME280;49638;47.526;10.028;2023-05-25T13:16:51;91980.59;;;17.45;77.04
63493;BME280;49638;47.526;10.028;2023-05-25T13:19:51;91979.25;;;17.48;74.03
63493;BME280;49638;47.526;10.028;2023-05-25T13:22:52;91965.09;;;17.47;77.63
63493;BME280;49638;47.526;10.028;2023-05-25T13:25:54;91976.28;;;17.55;77.23
63493;BME280;49638;47.526;10.028;2023-05-25T13:28:54;91974.63;;;17.59;77.23
63493;BME280;49638;47.526;10.028;2023-05-25T13:31:55;91969.22;;;17.69;77.20
63493;BME280;49638;47.526;10.028;2023-05-25T13:34:55;91967.06;;;17.71;76.63
63493;BME280;49638;47.526;10.028;2023-05-25T13:37:58;91973.94;;;17.82;76.67
63493;BME280;49638;47.526;10.028;2023-05-25T13:40:59;91967.78;;;17.87;76.33
63493;BME280;49638;47.526;10.028;2023-05-25T13:44:00;91979.19;;;17.92;76.20
63493;BME280;49638;47.526;10.028;2023-05-25T13:47:00;91981.28;;;18.01;75.79
63493;BME280;49638;47.526;10.028;2023-05-25T13:50:00;91986.53;;;18.11;75.96
63493;BME280;49638;47.526;10.028;2023-05-25T13:53:00;91984.38;;;18.13;75.64
63493;BME280;49638;47.526;10.028;2023-05-25T13:56:01;91991.25;;;18.19;75.55
63493;BME280;49638;47.526;10.028;2023-05-25T13:59:01;91998.16;;;18.25;75.40
63493;BME280;49638;47.526;10.028;2023-05-25T14:02:01;91983.75;;;18.21;75.38
63493;BME280;49638;47.526;10.028;2023-05-25T14:05:02;91994.06;;;18.33;75.18
63493;BME280;49638;47.526;10.028;2023-05-25T14:08:02;91992.94;;;18.39;75.23
63493;BME280;49638;47.526;10.028;2023-05-25T14:11:03;91993.72;;;18.39;74.90
63493;BME280;49638;47.526;10.028;2023-05-25T14:14:04;91991.13;;;18.34;74.73
63493;BME280;49638;47.526;10.028;2023-05-25T14:17:07;91979.16;;;18.27;74.90
63493;BME280;49638;47.526;10.028;2023-05-25T14:20:08;91981.81;;;18.27;74.70
63493;BME280;49638;47.526;10.028;2023-05-25T14:23:08;91986.44;;;18.21;74.67
63493;BME280;49638;47.526;10.028;2023-05-25T14:26:09;91979.63;;;18.05;74.55
63493;BME280;49638;47.526;10.028;2023-05-25T14:29:09;91983.56;;;18.12;74.46
63493;BME280;49638;47.526;10.028;2023-05-25T14:32:09;91990.75;;;18.17;74.42
63493;BME280;49638;47.526;10.028;2023-05-25T14:35:10;91982.16;;;18.20;74.36
63493;BME280;49638;47.526;10.028;2023-05-25T14:38:12;91982.16;;;18.20;74.41
63493;BME280;49638;47.526;10.028;2023-05-25T14:41:13;91980.56;;;18.19;74.79
63493;BME280;49638;47.526;10.028;2023-05-25T14:44:13;91984.03;;;18.19;74.85
63493;BME280;49638;47.526;10.028;2023-05-25T14:47:13;91999.75;;;18.26;74.62
63493;BME280;49638;47.526;10.028;2023-05-25T14:50:13;91985.06;;;18.24;74.84
63493;BME280;49638;47.526;10.028;2023-05-25T14:53:14;91997.03;;;18.31;74.98
63493;BME280;49638;47.526;10.028;2023-05-25T14:56:20;92002.41;;;18.31;74.18
63493;BME280;49638;47.526;10.028;2023-05-25T14:59:20;91994.94;;;18.28;74.52
63493;BME280;49638;47.526;10.028;2023-05-25T15:02:20;91999.53;;;18.23;74.71
63493;BME280;49638;47.526;10.028;2023-05-25T15:05:21;91995.81;;;18.18;74.48
63493;BME280;49638;47.526;10.028;2023-05-25T15:08:21;91994.28;;;18.12;74.78
63493;BME280;49638;47.526;10.028;2023-05-25T15:11:21;92000.75;;;18.06;74.84
63493;BME280;49638;47.526;10.028;2023-05-25T15:14:21;91997.91;;;17.92;74.95
63493;BME280;49638;47.526;10.028;2023-05-25T15:17:22;92000.13;;;17.85;75.08
63493;BME280;49638;47.526;10.028;2023-05-25T15:20:22;92008.19;;;17.80;74.83
63493;BME280;49638;47.526;10.028;2023-05-25T15:23:22;92012.47;;;17.76;74.93
63493;BME280;49638;47.526;10.028;2023-05-25T15:26:23;92010.88;;;17.75;75.16
63493;BME280;49638;47.526;10.028;2023-05-25T15:29:24;92010.16;;;17.64;75.39
63493;BME280;49638;47.526;10.028;2023-05-25T15:32:25;92010.38;;;17.68;75.52
63493;BME280;49638;47.526;10.028;2023-05-25T15:35:25;92007.19;;;17.66;75.56
63493;BME280;49638;47.526;10.028;2023-05-25T15:38:30;92018.69;;;17.66;75.40
63493;BME280;49638;47.526;10.028;2023-05-25T15:41:30;92026.44;;;17.63;75.51
63493;BME280;49638;47.526;10.028;2023-05-25T15:44:30;92021.16;;;17.58;75.27
63493;BME280;49638;47.526;10.028;2023-05-25T15:47:30;92041.50;;;17.54;75.81
63493;BME280;49638;47.526;10.028;2023-05-25T15:50:31;92034.88;;;17.46;75.30
63493;BME280;49638;47.526;10.028;2023-05-25T15:53:31;92027.19;;;17.34;75.71